Aviation Digital Data Service (ADDS)

Output produced by METARs form (0344 UTC 01 August 2014)
found at http://aviationweather.gov/adds/metars/
 
KLEB 312320Z 0100/0124 19008KT P6SM SCT050 BKN100 
     FM010200 VRB03KT 5SM BR SCT250 
     FM010900 00000KT 1/2SM FG BKN002 
     FM011100 VRB03KT P6SM SCT002 SCT250 
     FM011400 19004KT P6SM SCT045 
     TEMPO 0116/0120 BKN045